sensor_id;sensor_type;location;lat;lon;timestamp;P1;durP1;ratioP1;P2;durP2;ratioP2
11618;SDS011;5865;48.776;9.280;2024-02-23T00:02:30;1.00;;;0.40;;
11618;SDS011;5865;48.776;9.280;2024-02-23T00:04:59;0.50;;;0.20;;
11618;SDS011;5865;48.776;9.280;2024-02-23T00:07:27;0.30;;;0.27;;
11618;SDS011;5865;48.776;9.280;2024-02-23T00:09:55;1.13;;;0.30;;
11618;SDS011;5865;48.776;9.280;2024-02-23T00:12:22;0.40;;;0.20;;
11618;SDS011;5865;48.776;9.280;2024-02-23T00:14:50;0.10;;;0.10;;
11618;SDS011;5865;48.776;9.280;2024-02-23T00:17:17;0.10;;;0.10;;
11618;SDS011;5865;48.776;9.280;2024-02-23T00:19:45;1.10;;;0.20;;
11618;SDS011;5865;48.776;9.280;2024-02-23T00:22:15;0.97;;;0.40;;
11618;SDS011;5865;48.776;9.280;2024-02-23T00:24:46;0.20;;;0.10;;
11618;SDS011;5865;48.776;9.280;2024-02-23T00:27:16;0.10;;;0.10;;
11618;SDS011;5865;48.776;9.280;2024-02-23T00:29:46;0.73;;;0.30;;
11618;SDS011;5865;48.776;9.280;2024-02-23T00:32:13;0.67;;;0.30;;
11618;SDS011;5865;48.776;9.280;2024-02-23T00:34:41;1.10;;;0.80;;
11618;SDS011;5865;48.776;9.280;2024-02-23T00:37:08;0.23;;;0.20;;
11618;SDS011;5865;48.776;9.280;2024-02-23T00:39:37;5.33;;;0.77;;
11618;SDS011;5865;48.776;9.280;2024-02-23T00:42:05;1.67;;;0.60;;
11618;SDS011;5865;48.776;9.280;2024-02-23T00:44:33;0.40;;;0.40;;
11618;SDS011;5865;48.776;9.280;2024-02-23T00:47:02;0.20;;;0.20;;
11618;SDS011;5865;48.776;9.280;2024-02-23T00:49:30;0.10;;;0.10;;
11618;SDS011;5865;48.776;9.280;2024-02-23T00:52:00;0.93;;;0.40;;
11618;SDS011;5865;48.776;9.280;2024-02-23T00:54:28;0.53;;;0.50;;
11618;SDS011;5865;48.776;9.280;2024-02-23T00:56:57;1.10;;;0.30;;
11618;SDS011;5865;48.776;9.280;2024-02-23T00:59:24;0.40;;;0.33;;
11618;SDS011;5865;48.776;9.280;2024-02-23T01:01:53;0.50;;;0.50;;
11618;SDS011;5865;48.776;9.280;2024-02-23T01:04:21;2.50;;;0.60;;
11618;SDS011;5865;48.776;9.280;2024-02-23T01:06:49;1.27;;;0.60;;
11618;SDS011;5865;48.776;9.280;2024-02-23T01:09:16;0.57;;;0.57;;
11618;SDS011;5865;48.776;9.280;2024-02-23T01:11:45;0.93;;;0.57;;
11618;SDS011;5865;48.776;9.280;2024-02-23T01:14:14;2.10;;;0.57;;
11618;SDS011;5865;48.776;9.280;2024-02-23T01:16:42;1.30;;;0.70;;
11618;SDS011;5865;48.776;9.280;2024-02-23T01:19:10;2.00;;;0.60;;
11618;SDS011;5865;48.776;9.280;2024-02-23T01:21:37;0.80;;;0.40;;
11618;SDS011;5865;48.776;9.280;2024-02-23T01:24:05;0.87;;;0.40;;
11618;SDS011;5865;48.776;9.280;2024-02-23T01:26:32;2.63;;;1.03;;
11618;SDS011;5865;48.776;9.280;2024-02-23T01:29:00;3.10;;;0.80;;
11618;SDS011;5865;48.776;9.280;2024-02-23T01:31:36;1.37;;;0.87;;
11618;SDS011;5865;48.776;9.280;2024-02-23T01:34:03;1.50;;;0.73;;
11618;SDS011;5865;48.776;9.280;2024-02-23T01:36:31;1.07;;;0.67;;
11618;SDS011;5865;48.776;9.280;2024-02-23T01:38:59;1.00;;;0.70;;
11618;SDS011;5865;48.776;9.280;2024-02-23T01:41:26;2.77;;;0.70;;
11618;SDS011;5865;48.776;9.280;2024-02-23T01:43:54;3.27;;;0.80;;
11618;SDS011;5865;48.776;9.280;2024-02-23T01:46:21;1.07;;;0.60;;
11618;SDS011;5865;48.776;9.280;2024-02-23T01:48:50;1.40;;;0.60;;
11618;SDS011;5865;48.776;9.280;2024-02-23T01:51:18;1.30;;;1.03;;
11618;SDS011;5865;48.776;9.280;2024-02-23T01:53:46;1.77;;;0.80;;
11618;SDS011;5865;48.776;9.280;2024-02-23T01:56:14;2.13;;;0.70;;
11618;SDS011;5865;48.776;9.280;2024-02-23T01:58:43;2.87;;;1.07;;
11618;SDS011;5865;48.776;9.280;2024-02-23T02:01:11;1.87;;;1.00;;
11618;SDS011;5865;48.776;9.280;2024-02-23T02:03:39;1.30;;;0.53;;
11618;SDS011;5865;48.776;9.280;2024-02-23T02:06:09;1.90;;;0.87;;
11618;SDS011;5865;48.776;9.280;2024-02-23T02:08:36;1.80;;;0.90;;
11618;SDS011;5865;48.776;9.280;2024-02-23T02:11:04;1.50;;;0.67;;
11618;SDS011;5865;48.776;9.280;2024-02-23T02:13:32;1.93;;;0.90;;
11618;SDS011;5865;48.776;9.280;2024-02-23T02:16:02;1.23;;;0.60;;
11618;SDS011;5865;48.776;9.280;2024-02-23T02:18:32;2.10;;;0.70;;
11618;SDS011;5865;48.776;9.280;2024-02-23T02:21:00;1.57;;;0.60;;
11618;SDS011;5865;48.776;9.280;2024-02-23T02:23:29;0.90;;;0.63;;
11618;SDS011;5865;48.776;9.280;2024-02-23T02:25:57;1.13;;;0.50;;
11618;SDS011;5865;48.776;9.280;2024-02-23T02:28:26;2.20;;;0.50;;
11618;SDS011;5865;48.776;9.280;2024-02-23T02:30:54;1.77;;;0.60;;
11618;SDS011;5865;48.776;9.280;2024-02-23T02:33:22;0.83;;;0.47;;
11618;SDS011;5865;48.776;9.280;2024-02-23T02:35:49;1.30;;;0.50;;
11618;SDS011;5865;48.776;9.280;2024-02-23T02:38:16;0.90;;;0.50;;
11618;SDS011;5865;48.776;9.280;2024-02-23T02:40:47;2.77;;;0.60;;
11618;SDS011;5865;48.776;9.280;2024-02-23T02:43:14;1.07;;;0.63;;
11618;SDS011;5865;48.776;9.280;2024-02-23T02:45:41;2.53;;;0.70;;
11618;SDS011;5865;48.776;9.280;2024-02-23T02:48:09;1.10;;;0.43;;
11618;SDS011;5865;48.776;9.280;2024-02-23T02:50:36;2.27;;;0.60;;
11618;SDS011;5865;48.776;9.280;2024-02-23T02:53:04;0.73;;;0.50;;
11618;SDS011;5865;48.776;9.280;2024-02-23T02:55:32;3.20;;;0.60;;
11618;SDS011;5865;48.776;9.280;2024-02-23T02:58:00;0.93;;;0.70;;
11618;SDS011;5865;48.776;9.280;2024-02-23T03:00:28;1.77;;;0.50;;
11618;SDS011;5865;48.776;9.280;2024-02-23T03:02:56;2.30;;;0.80;;
11618;SDS011;5865;48.776;9.280;2024-02-23T03:05:23;2.03;;;0.67;;
11618;SDS011;5865;48.776;9.280;2024-02-23T03:07:51;2.10;;;0.53;;
11618;SDS011;5865;48.776;9.280;2024-02-23T03:10:19;1.77;;;0.43;;
11618;SDS011;5865;48.776;9.280;2024-02-23T03:12:48;0.97;;;0.70;;
11618;SDS011;5865;48.776;9.280;2024-02-23T03:15:18;1.53;;;0.53;;
11618;SDS011;5865;48.776;9.280;2024-02-23T03:17:45;3.30;;;0.73;;
11618;SDS011;5865;48.776;9.280;2024-02-23T03:20:12;2.43;;;0.53;;
11618;SDS011;5865;48.776;9.280;2024-02-23T03:22:40;2.57;;;0.70;;
11618;SDS011;5865;48.776;9.280;2024-02-23T03:25:08;1.80;;;0.90;;
11618;SDS011;5865;48.776;9.280;2024-02-23T03:27:36;1.17;;;0.80;;
11618;SDS011;5865;48.776;9.280;2024-02-23T03:30:04;1.37;;;1.10;;
11618;SDS011;5865;48.776;9.280;2024-02-23T03:32:35;3.37;;;1.40;;
11618;SDS011;5865;48.776;9.280;2024-02-23T03:35:04;2.70;;;1.60;;
11618;SDS011;5865;48.776;9.280;2024-02-23T03:37:32;2.77;;;1.50;;
11618;SDS011;5865;48.776;9.280;2024-02-23T03:40:00;4.73;;;1.50;;
11618;SDS011;5865;48.776;9.280;2024-02-23T03:42:30;2.27;;;1.10;;
11618;SDS011;5865;48.776;9.280;2024-02-23T03:44:58;1.97;;;1.10;;
11618;SDS011;5865;48.776;9.280;2024-02-23T03:47:26;1.10;;;0.90;;
11618;SDS011;5865;48.776;9.280;2024-02-23T03:49:59;1.90;;;1.07;;
11618;SDS011;5865;48.776;9.280;2024-02-23T03:52:26;2.50;;;1.00;;
11618;SDS011;5865;48.776;9.280;2024-02-23T03:54:57;1.77;;;1.00;;
11618;SDS011;5865;48.776;9.280;2024-02-23T03:57:24;6.77;;;1.10;;
11618;SDS011;5865;48.776;9.280;2024-02-23T03:59:52;2.77;;;0.87;;
11618;SDS011;5865;48.776;9.280;2024-02-23T04:02:19;2.10;;;1.20;;
11618;SDS011;5865;48.776;9.280;2024-02-23T04:04:47;2.43;;;1.13;;
11618;SDS011;5865;48.776;9.280;2024-02-23T04:07:17;4.47;;;0.90;;
11618;SDS011;5865;48.776;9.280;2024-02-23T04:09:44;1.90;;;0.80;;
11618;SDS011;5865;48.776;9.280;2024-02-23T04:12:17;1.27;;;0.77;;
11618;SDS011;5865;48.776;9.280;2024-02-23T04:14:45;2.30;;;0.70;;
11618;SDS011;5865;48.776;9.280;2024-02-23T04:17:12;0.80;;;0.80;;
11618;SDS011;5865;48.776;9.280;2024-02-23T04:19:40;1.90;;;0.87;;
11618;SDS011;5865;48.776;9.280;2024-02-23T04:22:07;2.23;;;0.97;;
11618;SDS011;5865;48.776;9.280;2024-02-23T04:24:37;0.90;;;0.73;;
11618;SDS011;5865;48.776;9.280;2024-02-23T04:27:05;1.30;;;0.60;;
11618;SDS011;5865;48.776;9.280;2024-02-23T04:29:33;2.00;;;0.67;;
11618;SDS011;5865;48.776;9.280;2024-02-23T04:32:01;2.17;;;0.50;;
11618;SDS011;5865;48.776;9.280;2024-02-23T04:34:28;2.53;;;0.87;;
11618;SDS011;5865;48.776;9.280;2024-02-23T04:36:57;0.87;;;0.60;;
11618;SDS011;5865;48.776;9.280;2024-02-23T04:39:24;3.53;;;0.90;;
11618;SDS011;5865;48.776;9.280;2024-02-23T04:41:53;3.27;;;0.93;;
11618;SDS011;5865;48.776;9.280;2024-02-23T04:44:20;1.17;;;0.80;;
11618;SDS011;5865;48.776;9.280;2024-02-23T04:46:48;1.40;;;0.80;;
11618;SDS011;5865;48.776;9.280;2024-02-23T04:49:16;0.97;;;0.63;;
11618;SDS011;5865;48.776;9.280;2024-02-23T04:51:43;1.90;;;0.80;;
11618;SDS011;5865;48.776;9.280;2024-02-23T04:54:10;2.63;;;0.70;;
11618;SDS011;5865;48.776;9.280;2024-02-23T04:56:38;2.97;;;0.70;;
11618;SDS011;5865;48.776;9.280;2024-02-23T04:59:07;3.30;;;0.70;;
11618;SDS011;5865;48.776;9.280;2024-02-23T05:01:35;1.50;;;0.47;;
11618;SDS011;5865;48.776;9.280;2024-02-23T05:04:03;0.70;;;0.50;;
11618;SDS011;5865;48.776;9.280;2024-02-23T05:06:31;1.93;;;0.70;;
11618;SDS011;5865;48.776;9.280;2024-02-23T05:08:59;1.00;;;0.60;;
11618;SDS011;5865;48.776;9.280;2024-02-23T05:11:26;1.40;;;0.60;;
11618;SDS011;5865;48.776;9.280;2024-02-23T05:13:54;4.67;;;0.93;;
11618;SDS011;5865;48.776;9.280;2024-02-23T05:16:23;2.80;;;0.93;;
11618;SDS011;5865;48.776;9.280;2024-02-23T05:18:50;0.63;;;0.63;;
11618;SDS011;5865;48.776;9.280;2024-02-23T05:21:19;0.90;;;0.60;;
11618;SDS011;5865;48.776;9.280;2024-02-23T05:23:46;1.97;;;0.63;;
11618;SDS011;5865;48.776;9.280;2024-02-23T05:26:13;1.33;;;0.90;;
11618;SDS011;5865;48.776;9.280;2024-02-23T05:28:42;4.23;;;0.90;;
11618;SDS011;5865;48.776;9.280;2024-02-23T05:31:09;2.80;;;0.87;;
11618;SDS011;5865;48.776;9.280;2024-02-23T05:33:40;3.03;;;1.00;;
11618;SDS011;5865;48.776;9.280;2024-02-23T05:36:08;0.60;;;0.60;;
11618;SDS011;5865;48.776;9.280;2024-02-23T05:38:35;1.57;;;0.90;;
11618;SDS011;5865;48.776;9.280;2024-02-23T05:41:03;2.07;;;0.77;;
11618;SDS011;5865;48.776;9.280;2024-02-23T05:43:31;1.80;;;0.50;;
11618;SDS011;5865;48.776;9.280;2024-02-23T05:46:00;1.23;;;0.67;;
11618;SDS011;5865;48.776;9.280;2024-02-23T05:48:34;3.17;;;1.53;;
11618;SDS011;5865;48.776;9.280;2024-02-23T05:51:16;2.27;;;0.70;;
11618;SDS011;5865;48.776;9.280;2024-02-23T05:53:50;1.17;;;0.73;;
11618;SDS011;5865;48.776;9.280;2024-02-23T05:56:24;1.30;;;0.90;;
11618;SDS011;5865;48.776;9.280;2024-02-23T06:03:01;2.53;;;1.17;;
11618;SDS011;5865;48.776;9.280;2024-02-23T06:09:21;1.37;;;1.00;;
11618;SDS011;5865;48.776;9.280;2024-02-23T06:11:53;2.50;;;1.20;;
11618;SDS011;5865;48.776;9.280;2024-02-23T06:15:22;4.57;;;1.27;;
11618;SDS011;5865;48.776;9.280;2024-02-23T06:17:57;2.83;;;1.00;;
11618;SDS011;5865;48.776;9.280;2024-02-23T06:20:38;1.20;;;0.67;;
11618;SDS011;5865;48.776;9.280;2024-02-23T06:23:14;3.20;;;0.77;;
11618;SDS011;5865;48.776;9.280;2024-02-23T06:28:29;2.10;;;0.80;;
11618;SDS011;5865;48.776;9.280;2024-02-23T06:31:04;1.70;;;0.77;;
11618;SDS011;5865;48.776;9.280;2024-02-23T06:33:37;1.73;;;1.07;;
11618;SDS011;5865;48.776;9.280;2024-02-23T06:36:29;1.40;;;0.80;;
11618;SDS011;5865;48.776;9.280;2024-02-23T06:39:06;2.60;;;0.97;;
11618;SDS011;5865;48.776;9.280;2024-02-23T06:41:39;1.30;;;1.17;;
11618;SDS011;5865;48.776;9.280;2024-02-23T06:44:13;2.43;;;1.00;;
11618;SDS011;5865;48.776;9.280;2024-02-23T06:47:01;3.87;;;1.20;;
11618;SDS011;5865;48.776;9.280;2024-02-23T06:52:51;2.50;;;1.03;;
11618;SDS011;5865;48.776;9.280;2024-02-23T06:55:34;1.70;;;0.83;;
11618;SDS011;5865;48.776;9.280;2024-02-23T06:58:03;3.00;;;1.50;;
11618;SDS011;5865;48.776;9.280;2024-02-23T07:00:36;1.47;;;0.90;;
11618;SDS011;5865;48.776;9.280;2024-02-23T07:03:07;1.27;;;1.00;;
11618;SDS011;5865;48.776;9.280;2024-02-23T07:19:48;6.70;;;3.97;;
11618;SDS011;5865;48.776;9.280;2024-02-23T07:22:42;7.47;;;3.90;;
11618;SDS011;5865;48.776;9.280;2024-02-23T07:25:37;5.83;;;5.23;;
11618;SDS011;5865;48.776;9.280;2024-02-23T07:28:08;4.93;;;2.97;;
11618;SDS011;5865;48.776;9.280;2024-02-23T07:31:21;2.73;;;2.40;;
11618;SDS011;5865;48.776;9.280;2024-02-23T07:34:17;3.37;;;1.90;;
11618;SDS011;5865;48.776;9.280;2024-02-23T07:40:20;6.63;;;3.30;;
11618;SDS011;5865;48.776;9.280;2024-02-23T07:46:00;5.80;;;2.33;;
11618;SDS011;5865;48.776;9.280;2024-02-23T07:52:07;2.07;;;1.10;;
11618;SDS011;5865;48.776;9.280;2024-02-23T07:54:40;3.63;;;1.07;;
11618;SDS011;5865;48.776;9.280;2024-02-23T07:57:09;1.87;;;0.90;;
11618;SDS011;5865;48.776;9.280;2024-02-23T07:59:41;4.10;;;1.30;;
11618;SDS011;5865;48.776;9.280;2024-02-23T08:02:08;1.73;;;0.90;;
11618;SDS011;5865;48.776;9.280;2024-02-23T08:04:36;1.43;;;0.83;;
11618;SDS011;5865;48.776;9.280;2024-02-23T08:07:03;2.43;;;0.97;;
11618;SDS011;5865;48.776;9.280;2024-02-23T08:09:32;0.87;;;0.77;;
11618;SDS011;5865;48.776;9.280;2024-02-23T08:12:00;1.00;;;0.90;;
11618;SDS011;5865;48.776;9.280;2024-02-23T08:14:37;0.60;;;0.60;;
11618;SDS011;5865;48.776;9.280;2024-02-23T08:17:12;0.93;;;0.83;;
11618;SDS011;5865;48.776;9.280;2024-02-23T08:21:07;2.30;;;0.80;;
11618;SDS011;5865;48.776;9.280;2024-02-23T08:23:47;2.10;;;0.90;;
11618;SDS011;5865;48.776;9.280;2024-02-23T08:26:23;1.03;;;0.73;;
11618;SDS011;5865;48.776;9.280;2024-02-23T08:29:20;2.23;;;0.80;;
11618;SDS011;5865;48.776;9.280;2024-02-23T08:35:43;2.50;;;1.00;;
11618;SDS011;5865;48.776;9.280;2024-02-23T08:38:10;1.83;;;1.20;;
11618;SDS011;5865;48.776;9.280;2024-02-23T08:40:46;3.33;;;0.80;;
11618;SDS011;5865;48.776;9.280;2024-02-23T08:43:18;3.27;;;1.00;;
11618;SDS011;5865;48.776;9.280;2024-02-23T08:45:53;0.83;;;0.50;;
11618;SDS011;5865;48.776;9.280;2024-02-23T08:48:51;2.00;;;0.87;;
11618;SDS011;5865;48.776;9.280;2024-02-23T08:54:28;1.50;;;0.80;;
11618;SDS011;5865;48.776;9.280;2024-02-23T08:56:58;3.90;;;1.00;;
11618;SDS011;5865;48.776;9.280;2024-02-23T08:59:36;1.50;;;0.80;;
11618;SDS011;5865;48.776;9.280;2024-02-23T09:05:17;2.47;;;1.00;;
11618;SDS011;5865;48.776;9.280;2024-02-23T09:07:47;1.33;;;0.70;;
11618;SDS011;5865;48.776;9.280;2024-02-23T09:10:20;1.27;;;0.70;;
11618;SDS011;5865;48.776;9.280;2024-02-23T09:12:50;1.43;;;0.80;;
11618;SDS011;5865;48.776;9.280;2024-02-23T09:15:39;2.07;;;1.03;;
11618;SDS011;5865;48.776;9.280;2024-02-23T09:18:10;5.17;;;1.10;;
11618;SDS011;5865;48.776;9.280;2024-02-23T09:20:39;3.87;;;1.90;;
11618;SDS011;5865;48.776;9.280;2024-02-23T09:23:07;3.20;;;1.80;;
11618;SDS011;5865;48.776;9.280;2024-02-23T09:25:38;4.07;;;1.73;;
11618;SDS011;5865;48.776;9.280;2024-02-23T09:28:11;2.67;;;1.20;;
11618;SDS011;5865;48.776;9.280;2024-02-23T09:30:40;3.20;;;0.97;;
11618;SDS011;5865;48.776;9.280;2024-02-23T09:33:08;2.67;;;0.60;;
11618;SDS011;5865;48.776;9.280;2024-02-23T09:35:40;2.77;;;1.00;;
11618;SDS011;5865;48.776;9.280;2024-02-23T09:38:07;2.17;;;1.30;;
11618;SDS011;5865;48.776;9.280;2024-02-23T09:40:39;2.40;;;1.00;;
11618;SDS011;5865;48.776;9.280;2024-02-23T09:43:07;1.57;;;0.80;;
11618;SDS011;5865;48.776;9.280;2024-02-23T09:45:36;3.57;;;0.90;;
11618;SDS011;5865;48.776;9.280;2024-02-23T09:48:07;2.47;;;0.90;;
11618;SDS011;5865;48.776;9.280;2024-02-23T09:50:35;1.70;;;0.70;;
11618;SDS011;5865;48.776;9.280;2024-02-23T09:53:03;2.47;;;0.90;;
11618;SDS011;5865;48.776;9.280;2024-02-23T09:55:33;4.20;;;0.80;;
11618;SDS011;5865;48.776;9.280;2024-02-23T09:58:04;4.00;;;0.70;;
11618;SDS011;5865;48.776;9.280;2024-02-23T10:00:31;2.57;;;1.00;;
11618;SDS011;5865;48.776;9.280;2024-02-23T10:03:02;2.00;;;1.00;;
11618;SDS011;5865;48.776;9.280;2024-02-23T10:05:33;2.03;;;0.80;;
11618;SDS011;5865;48.776;9.280;2024-02-23T10:08:04;2.63;;;1.10;;
11618;SDS011;5865;48.776;9.280;2024-02-23T10:10:48;2.20;;;1.00;;
11618;SDS011;5865;48.776;9.280;2024-02-23T10:13:20;1.40;;;0.90;;
11618;SDS011;5865;48.776;9.280;2024-02-23T10:15:52;4.10;;;1.10;;
11618;SDS011;5865;48.776;9.280;2024-02-23T10:18:26;3.03;;;0.80;;
11618;SDS011;5865;48.776;9.280;2024-02-23T10:20:55;4.10;;;0.90;;
11618;SDS011;5865;48.776;9.280;2024-02-23T10:23:23;3.17;;;1.20;;
11618;SDS011;5865;48.776;9.280;2024-02-23T10:25:54;4.73;;;1.40;;
11618;SDS011;5865;48.776;9.280;2024-02-23T10:28:26;4.07;;;1.20;;
11618;SDS011;5865;48.776;9.280;2024-02-23T10:30:54;4.53;;;1.33;;
11618;SDS011;5865;48.776;9.280;2024-02-23T10:33:25;4.73;;;1.50;;
11618;SDS011;5865;48.776;9.280;2024-02-23T10:38:54;1.83;;;1.23;;
11618;SDS011;5865;48.776;9.280;2024-02-23T10:41:24;3.77;;;1.40;;
11618;SDS011;5865;48.776;9.280;2024-02-23T10:43:55;2.23;;;1.10;;
11618;SDS011;5865;48.776;9.280;2024-02-23T10:46:25;1.63;;;1.00;;
11618;SDS011;5865;48.776;9.280;2024-02-23T10:48:55;4.53;;;1.63;;
11618;SDS011;5865;48.776;9.280;2024-02-23T10:51:25;3.23;;;1.37;;
11618;SDS011;5865;48.776;9.280;2024-02-23T10:53:53;4.33;;;1.40;;
11618;SDS011;5865;48.776;9.280;2024-02-23T10:56:21;3.83;;;1.23;;
11618;SDS011;5865;48.776;9.280;2024-02-23T10:58:49;5.87;;;1.37;;
11618;SDS011;5865;48.776;9.280;2024-02-23T11:01:21;3.03;;;1.33;;
11618;SDS011;5865;48.776;9.280;2024-02-23T11:03:51;3.40;;;0.70;;
11618;SDS011;5865;48.776;9.280;2024-02-23T11:06:28;6.30;;;1.63;;
11618;SDS011;5865;48.776;9.280;2024-02-23T11:09:14;3.90;;;1.20;;
11618;SDS011;5865;48.776;9.280;2024-02-23T11:11:54;3.80;;;1.73;;
11618;SDS011;5865;48.776;9.280;2024-02-23T11:14:32;3.27;;;1.27;;
11618;SDS011;5865;48.776;9.280;2024-02-23T11:17:17;3.77;;;1.90;;
11618;SDS011;5865;48.776;9.280;2024-02-23T11:19:45;12.63;;;6.50;;
11618;SDS011;5865;48.776;9.280;2024-02-23T11:22:20;5.10;;;2.20;;
11618;SDS011;5865;48.776;9.280;2024-02-23T11:24:50;7.17;;;2.63;;
11618;SDS011;5865;48.776;9.280;2024-02-23T11:27:29;7.17;;;2.23;;
11618;SDS011;5865;48.776;9.280;2024-02-23T11:30:01;3.83;;;1.00;;
11618;SDS011;5865;48.776;9.280;2024-02-23T11:32:47;4.50;;;1.27;;
11618;SDS011;5865;48.776;9.280;2024-02-23T11:35:27;4.57;;;1.10;;
11618;SDS011;5865;48.776;9.280;2024-02-23T11:37:56;2.97;;;1.27;;
11618;SDS011;5865;48.776;9.280;2024-02-23T11:40:25;3.10;;;1.00;;
11618;SDS011;5865;48.776;9.280;2024-02-23T11:42:54;2.67;;;0.83;;
11618;SDS011;5865;48.776;9.280;2024-02-23T11:45:22;2.77;;;1.27;;
11618;SDS011;5865;48.776;9.280;2024-02-23T11:47:55;3.80;;;1.00;;
11618;SDS011;5865;48.776;9.280;2024-02-23T11:50:22;2.63;;;1.10;;
11618;SDS011;5865;48.776;9.280;2024-02-23T11:52:50;3.87;;;0.90;;
11618;SDS011;5865;48.776;9.280;2024-02-23T11:55:18;2.60;;;1.00;;
11618;SDS011;5865;48.776;9.280;2024-02-23T11:57:47;2.17;;;0.90;;
11618;SDS011;5865;48.776;9.280;2024-02-23T12:00:15;4.10;;;1.10;;
11618;SDS011;5865;48.776;9.280;2024-02-23T12:02:55;3.27;;;1.03;;
11618;SDS011;5865;48.776;9.280;2024-02-23T12:05:29;1.77;;;1.20;;
11618;SDS011;5865;48.776;9.280;2024-02-23T12:07:56;2.47;;;1.10;;
11618;SDS011;5865;48.776;9.280;2024-02-23T12:10:24;3.13;;;0.90;;
11618;SDS011;5865;48.776;9.280;2024-02-23T12:12:53;3.93;;;1.10;;
11618;SDS011;5865;48.776;9.280;2024-02-23T12:15:21;2.07;;;0.90;;
11618;SDS011;5865;48.776;9.280;2024-02-23T12:17:48;4.40;;;1.03;;
11618;SDS011;5865;48.776;9.280;2024-02-23T12:20:20;4.67;;;1.00;;
11618;SDS011;5865;48.776;9.280;2024-02-23T12:22:48;3.13;;;1.10;;
11618;SDS011;5865;48.776;9.280;2024-02-23T12:25:16;2.97;;;1.10;;
11618;SDS011;5865;48.776;9.280;2024-02-23T12:27:44;3.07;;;0.93;;
11618;SDS011;5865;48.776;9.280;2024-02-23T12:30:13;3.20;;;1.10;;
11618;SDS011;5865;48.776;9.280;2024-02-23T12:32:41;4.40;;;1.37;;
11618;SDS011;5865;48.776;9.280;2024-02-23T12:35:10;3.23;;;1.10;;
11618;SDS011;5865;48.776;9.280;2024-02-23T12:37:41;2.90;;;1.10;;
11618;SDS011;5865;48.776;9.280;2024-02-23T12:40:10;2.97;;;1.00;;
11618;SDS011;5865;48.776;9.280;2024-02-23T12:42:38;3.73;;;0.90;;
11618;SDS011;5865;48.776;9.280;2024-02-23T12:45:06;3.00;;;1.40;;
11618;SDS011;5865;48.776;9.280;2024-02-23T12:47:33;3.30;;;1.00;;
11618;SDS011;5865;48.776;9.280;2024-02-23T12:50:01;3.20;;;1.10;;
11618;SDS011;5865;48.776;9.280;2024-02-23T12:52:28;1.97;;;1.00;;
11618;SDS011;5865;48.776;9.280;2024-02-23T12:54:59;3.07;;;1.30;;
11618;SDS011;5865;48.776;9.280;2024-02-23T12:57:29;3.40;;;1.57;;
11618;SDS011;5865;48.776;9.280;2024-02-23T12:59:56;3.30;;;1.10;;
11618;SDS011;5865;48.776;9.280;2024-02-23T13:02:23;2.13;;;0.90;;
11618;SDS011;5865;48.776;9.280;2024-02-23T13:04:51;4.83;;;0.90;;
11618;SDS011;5865;48.776;9.280;2024-02-23T13:07:18;3.57;;;1.20;;
11618;SDS011;5865;48.776;9.280;2024-02-23T13:09:46;2.10;;;0.90;;
11618;SDS011;5865;48.776;9.280;2024-02-23T13:12:18;2.27;;;0.90;;
11618;SDS011;5865;48.776;9.280;2024-02-23T13:14:50;2.20;;;1.00;;
11618;SDS011;5865;48.776;9.280;2024-02-23T13:17:31;2.50;;;1.10;;
11618;SDS011;5865;48.776;9.280;2024-02-23T13:19:59;4.37;;;1.00;;
11618;SDS011;5865;48.776;9.280;2024-02-23T13:22:29;3.53;;;1.10;;
11618;SDS011;5865;48.776;9.280;2024-02-23T13:25:07;4.40;;;1.17;;
11618;SDS011;5865;48.776;9.280;2024-02-23T13:27:48;2.57;;;1.10;;
11618;SDS011;5865;48.776;9.280;2024-02-23T13:30:18;4.83;;;1.13;;
11618;SDS011;5865;48.776;9.280;2024-02-23T13:32:45;11.50;;;3.43;;
11618;SDS011;5865;48.776;9.280;2024-02-23T13:35:21;7.43;;;1.30;;
11618;SDS011;5865;48.776;9.280;2024-02-23T13:40:40;3.20;;;1.27;;
11618;SDS011;5865;48.776;9.280;2024-02-23T13:43:08;3.03;;;1.53;;
11618;SDS011;5865;48.776;9.280;2024-02-23T13:45:47;3.60;;;1.00;;
11618;SDS011;5865;48.776;9.280;2024-02-23T13:48:16;4.47;;;1.37;;
11618;SDS011;5865;48.776;9.280;2024-02-23T13:50:44;3.37;;;1.30;;
11618;SDS011;5865;48.776;9.280;2024-02-23T13:53:16;2.77;;;1.20;;
11618;SDS011;5865;48.776;9.280;2024-02-23T13:55:47;4.43;;;1.10;;
11618;SDS011;5865;48.776;9.280;2024-02-23T13:58:16;4.50;;;1.10;;
11618;SDS011;5865;48.776;9.280;2024-02-23T14:00:44;3.03;;;1.43;;
11618;SDS011;5865;48.776;9.280;2024-02-23T14:03:11;3.67;;;1.23;;
11618;SDS011;5865;48.776;9.280;2024-02-23T14:05:42;8.87;;;2.50;;
11618;SDS011;5865;48.776;9.280;2024-02-23T14:08:11;5.30;;;1.30;;
11618;SDS011;5865;48.776;9.280;2024-02-23T14:10:40;4.43;;;1.30;;
11618;SDS011;5865;48.776;9.280;2024-02-23T14:13:08;4.27;;;1.17;;
11618;SDS011;5865;48.776;9.280;2024-02-23T14:15:37;5.33;;;1.20;;
11618;SDS011;5865;48.776;9.280;2024-02-23T14:18:04;3.83;;;1.07;;
11618;SDS011;5865;48.776;9.280;2024-02-23T14:20:32;4.87;;;1.33;;
11618;SDS011;5865;48.776;9.280;2024-02-23T14:22:59;3.00;;;1.40;;
11618;SDS011;5865;48.776;9.280;2024-02-23T14:25:26;3.20;;;1.20;;
11618;SDS011;5865;48.776;9.280;2024-02-23T14:27:56;5.00;;;1.13;;
11618;SDS011;5865;48.776;9.280;2024-02-23T14:30:24;4.33;;;1.37;;
11618;SDS011;5865;48.776;9.280;2024-02-23T14:32:53;4.23;;;1.10;;
11618;SDS011;5865;48.776;9.280;2024-02-23T14:35:20;3.27;;;1.07;;
11618;SDS011;5865;48.776;9.280;2024-02-23T14:37:48;6.03;;;2.60;;
11618;SDS011;5865;48.776;9.280;2024-02-23T14:40:15;4.33;;;1.37;;
11618;SDS011;5865;48.776;9.280;2024-02-23T14:42:42;3.50;;;1.20;;
11618;SDS011;5865;48.776;9.280;2024-02-23T14:45:10;4.30;;;1.40;;
11618;SDS011;5865;48.776;9.280;2024-02-23T14:47:38;3.17;;;1.13;;
11618;SDS011;5865;48.776;9.280;2024-02-23T14:50:08;3.73;;;1.10;;
11618;SDS011;5865;48.776;9.280;2024-02-23T14:52:36;3.03;;;1.10;;
11618;SDS011;5865;48.776;9.280;2024-02-23T14:55:03;2.97;;;1.00;;
11618;SDS011;5865;48.776;9.280;2024-02-23T14:57:30;3.07;;;1.10;;
11618;SDS011;5865;48.776;9.280;2024-02-23T14:59:58;3.43;;;1.17;;
11618;SDS011;5865;48.776;9.280;2024-02-23T15:02:25;3.50;;;1.03;;
11618;SDS011;5865;48.776;9.280;2024-02-23T15:04:52;3.60;;;1.10;;
11618;SDS011;5865;48.776;9.280;2024-02-23T15:07:21;4.23;;;1.30;;
11618;SDS011;5865;48.776;9.280;2024-02-23T15:09:49;3.10;;;1.27;;
11618;SDS011;5865;48.776;9.280;2024-02-23T15:12:16;4.53;;;1.20;;
11618;SDS011;5865;48.776;9.280;2024-02-23T15:14:43;2.43;;;1.00;;
11618;SDS011;5865;48.776;9.280;2024-02-23T15:17:12;3.57;;;1.10;;
11618;SDS011;5865;48.776;9.280;2024-02-23T15:19:39;2.77;;;1.10;;
11618;SDS011;5865;48.776;9.280;2024-02-23T15:22:06;3.77;;;1.40;;
11618;SDS011;5865;48.776;9.280;2024-02-23T15:24:40;3.57;;;1.13;;
11618;SDS011;5865;48.776;9.280;2024-02-23T15:27:10;4.03;;;1.10;;
11618;SDS011;5865;48.776;9.280;2024-02-23T15:29:38;4.10;;;1.10;;
11618;SDS011;5865;48.776;9.280;2024-02-23T15:32:05;4.00;;;1.27;;
11618;SDS011;5865;48.776;9.280;2024-02-23T15:34:35;3.03;;;1.10;;
11618;SDS011;5865;48.776;9.280;2024-02-23T15:37:03;2.47;;;1.00;;
11618;SDS011;5865;48.776;9.280;2024-02-23T15:39:32;3.00;;;1.03;;
11618;SDS011;5865;48.776;9.280;2024-02-23T15:42:01;5.50;;;1.47;;
11618;SDS011;5865;48.776;9.280;2024-02-23T15:44:29;2.53;;;1.07;;
11618;SDS011;5865;48.776;9.280;2024-02-23T15:46:56;4.00;;;1.20;;
11618;SDS011;5865;48.776;9.280;2024-02-23T15:49:23;3.20;;;1.03;;
11618;SDS011;5865;48.776;9.280;2024-02-23T15:51:51;4.17;;;1.20;;
11618;SDS011;5865;48.776;9.280;2024-02-23T15:54:18;5.27;;;1.07;;
11618;SDS011;5865;48.776;9.280;2024-02-23T15:56:46;3.30;;;1.07;;
11618;SDS011;5865;48.776;9.280;2024-02-23T15:59:15;4.20;;;0.87;;
11618;SDS011;5865;48.776;9.280;2024-02-23T16:01:42;3.03;;;1.07;;
11618;SDS011;5865;48.776;9.280;2024-02-23T16:04:10;4.20;;;1.10;;
11618;SDS011;5865;48.776;9.280;2024-02-23T16:06:40;3.47;;;1.00;;
11618;SDS011;5865;48.776;9.280;2024-02-23T16:09:07;5.10;;;1.27;;
11618;SDS011;5865;48.776;9.280;2024-02-23T16:11:39;2.20;;;1.20;;
11618;SDS011;5865;48.776;9.280;2024-02-23T16:14:11;2.67;;;1.03;;
11618;SDS011;5865;48.776;9.280;2024-02-23T16:16:40;5.53;;;1.10;;